Lansing, MI (48933)

10:00 AM EST on November 21, 2017 (GMT -0500)
Hunter Park | | Change Station
Active Advisory: Flood Advisory Active Notice: Flood Advisory

Elev 856 ft 42.73 °N, 84.53 °W | Updated 45 seconds ago

Clear
Clear
44.0 °F
Feels Like 39 °F
N
8.0
Wind Variable Wind from SW

Today
High -- | Low -- °F
--% Chance of Precip.
Yesterday
High -- | Low -- °F
Precip. -- in
Pressure 29.68 in
Visibility 10.0 miles
Clouds Clear
Windchill 39 °F
Dew Point 31 °F
Humidity 61%
Rainfall 0.00 in
Snow Depth Not available.
7:37 AM 5:10 PM
Waxing Crescent, 9% visible
METAR KLAN 211453Z 23018G23KT 10SM CLR 07/M01 A2967 RMK AO2 PK WND 21027/1438 SLP050 T00721006 53005
Pressure 29.68 in
Visibility 10.0 miles
Clouds Clear
Windchill 39 °F
Dew Point 31 °F
Humidity 61%
Rainfall 0.00 in
Snow Depth Not available.
7:37 AM 5:10 PM
Waxing Crescent, 9% visible
METAR KLAN 211453Z 23018G23KT 10SM CLR 07/M01 A2967 RMK AO2 PK WND 21027/1438 SLP050 T00721006 53005

Get Your Daily Forecast Email!

Thanks for signing up!

Be on the lookout for a verification email in your inbox.

You'll start receiving severe weather alerts in your inbox..

×

10-Day Weather Forecast

Almanac

Astronomy

Nov. 21, 2017 Rise Set
Actual Time
Civil Twilight
Nautical Twilight
Astronomical Twilight
Moon
Length of Visible Light
Length of Day
Tomorrow will be .
, % of the Moon is Illuminated

Today's Extremes

State Highs State Lows

Community

WunderPhotos

Category 6

Welcome to Category 6. This is the collective home for Weather Underground's featured writeups by Dr. Jeff Masters (right), Bob Henson (left), Chris Burt, and other regular contributors.

Nearby

Air Quality

  Air Quality AQ Index Pollutant
Not available.

Snow Depth

Station Depth Elevation

Earthquake Activity

City Distance Mag. Time & Date
Minimum magnitude displayed is 2.5.

Coastal Water Temperatures

Place Temperature

Stations

Nearby Weather Stations

Station Location Temp. Windchill Dew Point Humidity Wind Precip. Elev Updated Type
                   

Watches & Warnings

Flood Advisory
Issued: 8:46 PM EST Nov. 20, 2017 – National Weather Service

The flood advisory continues for
the Sycamore Creek at Holt
* until Thursday evening.
* There is not current observed data.
* Bankfull stage is 6.0 feet.
* Flood stage is 8.0 feet.
* Forecast, the river will rise to near 6.5 feet after midnight
tonight.
* Impact, at 6.0 feet... flooding begins in low lying areas along the
creek and at the Lansing Municipal Golf course and Scott Woods
Park.


Lat... Lon 4271 8451 4268 8449 4264 8445 4264 8451
      4268 8455 4271 8455